SELZG ESOW-ESOW
Flight info
| Callsign | SELZG |
|---|---|
| Flight time | 0h 54m |
| Altitude | 4000 |
| Route | ARS STAY1/0100 ARS |
| Aircraft | C172/L-V/N |
Departure
| Time | 2026-05-04 18:12 |
|---|---|
| Airport | Stockholm Västerås Airport (ESOW) |
Arrival
| Time | 2026-05-04 19:06 |
|---|---|
| Airport | Stockholm Västerås Airport (ESOW) |
| Time | Latitude | Longitude | Altitude | Speed | Heading |
|---|---|---|---|---|---|
| 2026-05-04 17:56 | 59.58944 | 16.62690 | 25 ft | 0 kts | 95° |
| 2026-05-04 18:08 | 59.58939 | 16.62813 | 22 ft | 15 kts | 102° |
| 2026-05-04 18:08 | 59.58983 | 16.62971 | 22 ft | 15 kts | 9° |
| 2026-05-04 18:08 | 59.59105 | 16.63004 | 24 ft | 15 kts | 8° |
| 2026-05-04 18:08 | 59.59223 | 16.63027 | 25 ft | 21 kts | 8° |
| 2026-05-04 18:09 | 59.59469 | 16.63101 | 30 ft | 18 kts | 4° |
| 2026-05-04 18:09 | 59.59613 | 16.63399 | 22 ft | 12 kts | 68° |
| 2026-05-04 18:10 | 59.59615 | 16.63462 | 22 ft | 0 kts | 116° |
| 2026-05-04 18:10 | 59.59614 | 16.63475 | 22 ft | 8 kts | 90° |
| 2026-05-04 18:11 | 59.59598 | 16.63625 | 24 ft | 6 kts | 133° |
| 2026-05-04 18:11 | 59.59497 | 16.63598 | 21 ft | 34 kts | 191° |
| 2026-05-04 18:11 | 59.59147 | 16.63451 | 25 ft | 66 kts | 202° |
| 2026-05-04 18:11 | 59.58637 | 16.63288 | 142 ft | 77 kts | 198° |
| 2026-05-04 18:12 | 59.58120 | 16.63128 | 324 ft | 76 kts | 195° |
| 2026-05-04 18:12 | 59.57579 | 16.62963 | 457 ft | 80 kts | 195° |
| 2026-05-04 18:12 | 59.57030 | 16.62818 | 645 ft | 81 kts | 196° |
| 2026-05-04 18:12 | 59.56468 | 16.62724 | 840 ft | 82 kts | 194° |
| 2026-05-04 18:13 | 59.55906 | 16.62681 | 1008 ft | 79 kts | 195° |
| 2026-05-04 18:13 | 59.55346 | 16.62666 | 1271 ft | 82 kts | 194° |
| 2026-05-04 18:13 | 59.54767 | 16.64765 | 1666 ft | 109 kts | 97° |
| 2026-05-04 18:14 | 59.54711 | 16.66263 | 1848 ft | 110 kts | 96° |
| 2026-05-04 18:14 | 59.54792 | 16.67751 | 2033 ft | 108 kts | 46° |
| 2026-05-04 18:14 | 59.55344 | 16.68588 | 2224 ft | 100 kts | 23° |
| 2026-05-04 18:15 | 59.56466 | 16.70197 | 2670 ft | 99 kts | 22° |
| 2026-05-04 18:15 | 59.57595 | 16.71422 | 3104 ft | 79 kts | 338° |
| 2026-05-04 18:15 | 59.58117 | 16.71192 | 3314 ft | 74 kts | 326° |
| 2026-05-04 18:16 | 59.58624 | 16.70902 | 3531 ft | 75 kts | 328° |
| 2026-05-04 18:16 | 59.59121 | 16.70591 | 3731 ft | 76 kts | 329° |
| 2026-05-04 18:16 | 59.59634 | 16.70304 | 3938 ft | 76 kts | 329° |
| 2026-05-04 18:17 | 59.60834 | 16.69539 | 4015 ft | 104 kts | 330° |
| 2026-05-04 18:17 | 59.61542 | 16.69057 | 4015 ft | 111 kts | 332° |
| 2026-05-04 18:17 | 59.63079 | 16.68180 | 4007 ft | 117 kts | 335° |
| 2026-05-04 18:18 | 59.63875 | 16.67764 | 4010 ft | 117 kts | 335° |
| 2026-05-04 18:18 | 59.64660 | 16.67353 | 4007 ft | 116 kts | 335° |
| 2026-05-04 18:18 | 59.65430 | 16.66930 | 4009 ft | 114 kts | 333° |
| 2026-05-04 18:18 | 59.66189 | 16.66457 | 4007 ft | 114 kts | 332° |
| 2026-05-04 18:19 | 59.67816 | 16.66492 | 4005 ft | 122 kts | 6° |
| 2026-05-04 18:19 | 59.68572 | 16.66951 | 3988 ft | 107 kts | 5° |
| 2026-05-04 18:19 | 59.69242 | 16.67389 | 3988 ft | 95 kts | 4° |
| 2026-05-04 18:20 | 59.69850 | 16.67765 | 3988 ft | 87 kts | 1° |
| 2026-05-04 18:20 | 59.70417 | 16.68100 | 3989 ft | 88 kts | 0° |
| 2026-05-04 18:20 | 59.71032 | 16.68442 | 3999 ft | 94 kts | 1° |
| 2026-05-04 18:20 | 59.71680 | 16.68796 | 4010 ft | 100 kts | 7° |
| 2026-05-04 18:21 | 59.72118 | 16.69986 | 4009 ft | 123 kts | 85° |
| 2026-05-04 18:21 | 59.71768 | 16.71416 | 4012 ft | 114 kts | 161° |
| 2026-05-04 18:21 | 59.71090 | 16.71471 | 4008 ft | 95 kts | 210° |
| 2026-05-04 18:21 | 59.70444 | 16.71157 | 4011 ft | 97 kts | 208° |
| 2026-05-04 18:22 | 59.69795 | 16.70826 | 4005 ft | 95 kts | 210° |
| 2026-05-04 18:22 | 59.69169 | 16.70477 | 4006 ft | 93 kts | 210° |
| 2026-05-04 18:22 | 59.68543 | 16.70131 | 4006 ft | 93 kts | 210° |
| 2026-05-04 18:22 | 59.67925 | 16.69779 | 4002 ft | 92 kts | 211° |
| 2026-05-04 18:23 | 59.67307 | 16.69424 | 4002 ft | 92 kts | 211° |
| 2026-05-04 18:23 | 59.66695 | 16.69073 | 3997 ft | 91 kts | 211° |
| 2026-05-04 18:23 | 59.66086 | 16.68724 | 3996 ft | 90 kts | 211° |
| 2026-05-04 18:23 | 59.65488 | 16.68378 | 3994 ft | 90 kts | 211° |
| 2026-05-04 18:24 | 59.64833 | 16.68506 | 3988 ft | 113 kts | 153° |
| 2026-05-04 18:24 | 59.64564 | 16.69988 | 3990 ft | 122 kts | 75° |
| 2026-05-04 18:24 | 59.65060 | 16.71078 | 3993 ft | 99 kts | 0° |
| 2026-05-04 18:24 | 59.65715 | 16.71350 | 4001 ft | 98 kts | 3° |
| 2026-05-04 18:25 | 59.66369 | 16.71713 | 4005 ft | 98 kts | 1° |
| 2026-05-04 18:25 | 59.67034 | 16.72061 | 4007 ft | 100 kts | 1° |
| 2026-05-04 18:25 | 59.67708 | 16.72419 | 4008 ft | 102 kts | 3° |
| 2026-05-04 18:25 | 59.68394 | 16.72820 | 4010 ft | 102 kts | 3° |
| 2026-05-04 18:26 | 59.69077 | 16.73214 | 4009 ft | 103 kts | 3° |
| 2026-05-04 18:26 | 59.69770 | 16.73553 | 4004 ft | 99 kts | 346° |
| 2026-05-04 18:26 | 59.70190 | 16.72875 | 3990 ft | 78 kts | 272° |
| 2026-05-04 18:26 | 59.69803 | 16.72141 | 3992 ft | 98 kts | 199° |
| 2026-05-04 18:27 | 59.69130 | 16.71976 | 3998 ft | 95 kts | 208° |
| 2026-05-04 18:27 | 59.68488 | 16.71667 | 4006 ft | 95 kts | 208° |
| 2026-05-04 18:27 | 59.67844 | 16.71360 | 4010 ft | 95 kts | 208° |
| 2026-05-04 18:27 | 59.67207 | 16.71055 | 4009 ft | 93 kts | 211° |
| 2026-05-04 18:28 | 59.66886 | 16.70241 | 4007 ft | 75 kts | 268° |
| 2026-05-04 18:28 | 59.66723 | 16.69246 | 4003 ft | 76 kts | 253° |
| 2026-05-04 18:28 | 59.66506 | 16.68289 | 4000 ft | 76 kts | 253° |
| 2026-05-04 18:28 | 59.66373 | 16.67278 | 3958 ft | 78 kts | 261° |
| 2026-05-04 18:29 | 59.66256 | 16.66250 | 3982 ft | 75 kts | 262° |
| 2026-05-04 18:29 | 59.65854 | 16.65536 | 3975 ft | 91 kts | 206° |
| 2026-05-04 18:29 | 59.65198 | 16.65942 | 3932 ft | 117 kts | 149° |
| 2026-05-04 18:29 | 59.64819 | 16.67390 | 3961 ft | 122 kts | 104° |
| 2026-05-04 18:30 | 59.64636 | 16.70807 | 3909 ft | 125 kts | 84° |
| 2026-05-04 18:30 | 59.65080 | 16.72052 | 3830 ft | 109 kts | 5° |
| 2026-05-04 18:30 | 59.65775 | 16.72463 | 3880 ft | 100 kts | 1° |
| 2026-05-04 18:31 | 59.66455 | 16.72850 | 3875 ft | 101 kts | 0° |
| 2026-05-04 18:31 | 59.67122 | 16.73215 | 3904 ft | 99 kts | 3° |
| 2026-05-04 18:31 | 59.67787 | 16.73565 | 3921 ft | 99 kts | 2° |
| 2026-05-04 18:31 | 59.68446 | 16.73761 | 3920 ft | 87 kts | 332° |
| 2026-05-04 18:32 | 59.68819 | 16.73048 | 3907 ft | 75 kts | 276° |
| 2026-05-04 18:32 | 59.68592 | 16.72145 | 3929 ft | 84 kts | 225° |
| 2026-05-04 18:32 | 59.68014 | 16.71778 | 3958 ft | 90 kts | 210° |
| 2026-05-04 18:32 | 59.67418 | 16.71468 | 3992 ft | 86 kts | 214° |
| 2026-05-04 18:33 | 59.66810 | 16.71177 | 4007 ft | 89 kts | 206° |
| 2026-05-04 18:33 | 59.66216 | 16.70867 | 3985 ft | 91 kts | 211° |
| 2026-05-04 18:33 | 59.65608 | 16.70549 | 4017 ft | 90 kts | 209° |
| 2026-05-04 18:33 | 59.64995 | 16.70254 | 4004 ft | 91 kts | 210° |
| 2026-05-04 18:34 | 59.64377 | 16.69935 | 4002 ft | 93 kts | 204° |
| 2026-05-04 18:34 | 59.63741 | 16.70539 | 3986 ft | 120 kts | 130° |
| 2026-05-04 18:34 | 59.63713 | 16.72130 | 3988 ft | 118 kts | 53° |
| 2026-05-04 18:34 | 59.64317 | 16.72871 | 3995 ft | 97 kts | 358° |
| 2026-05-04 18:35 | 59.64982 | 16.73216 | 3999 ft | 100 kts | 2° |
| 2026-05-04 18:35 | 59.65652 | 16.73573 | 4003 ft | 100 kts | 1° |
| 2026-05-04 18:35 | 59.66334 | 16.73924 | 4009 ft | 101 kts | 1° |
| 2026-05-04 18:35 | 59.67007 | 16.74268 | 4010 ft | 101 kts | 1° |
| 2026-05-04 18:36 | 59.67698 | 16.74622 | 4009 ft | 102 kts | 1° |
| 2026-05-04 18:36 | 59.68386 | 16.74971 | 4007 ft | 103 kts | 1° |
| 2026-05-04 18:36 | 59.69064 | 16.75172 | 3993 ft | 90 kts | 332° |
| 2026-05-04 18:36 | 59.69293 | 16.74345 | 3995 ft | 74 kts | 251° |
| 2026-05-04 18:37 | 59.68786 | 16.73849 | 3995 ft | 89 kts | 210° |
| 2026-05-04 18:37 | 59.68201 | 16.73493 | 4001 ft | 89 kts | 213° |
| 2026-05-04 18:37 | 59.67800 | 16.73248 | 4003 ft | 89 kts | 212° |
| 2026-05-04 18:37 | 59.67203 | 16.72889 | 4006 ft | 90 kts | 212° |
| 2026-05-04 18:38 | 59.66605 | 16.72529 | 4007 ft | 90 kts | 211° |
| 2026-05-04 18:38 | 59.65992 | 16.72196 | 4008 ft | 93 kts | 205° |
| 2026-05-04 18:38 | 59.65376 | 16.71916 | 4010 ft | 91 kts | 211° |
| 2026-05-04 18:38 | 59.64759 | 16.71590 | 4005 ft | 91 kts | 210° |
| 2026-05-04 18:39 | 59.64150 | 16.71273 | 4004 ft | 91 kts | 210° |
| 2026-05-04 18:39 | 59.63536 | 16.70951 | 4002 ft | 91 kts | 210° |
| 2026-05-04 18:39 | 59.62940 | 16.70608 | 4006 ft | 85 kts | 222° |
| 2026-05-04 18:39 | 59.62584 | 16.69821 | 4011 ft | 72 kts | 266° |
| 2026-05-04 18:40 | 59.62906 | 16.69132 | 4012 ft | 88 kts | 337° |
| 2026-05-04 18:40 | 59.63486 | 16.68789 | 4007 ft | 85 kts | 323° |
| 2026-05-04 18:40 | 59.64031 | 16.68333 | 4009 ft | 87 kts | 326° |
| 2026-05-04 18:40 | 59.64587 | 16.67884 | 4009 ft | 85 kts | 325° |
| 2026-05-04 18:41 | 59.65119 | 16.67416 | 4011 ft | 84 kts | 323° |
| 2026-05-04 18:41 | 59.65654 | 16.66940 | 4008 ft | 84 kts | 323° |
| 2026-05-04 18:41 | 59.66191 | 16.66457 | 4007 ft | 85 kts | 323° |
| 2026-05-04 18:41 | 59.66750 | 16.66066 | 4010 ft | 94 kts | 349° |
| 2026-05-04 18:42 | 59.67421 | 16.66383 | 4006 ft | 99 kts | 0° |
| 2026-05-04 18:42 | 59.68085 | 16.66724 | 4009 ft | 99 kts | 2° |
| 2026-05-04 18:42 | 59.68750 | 16.67092 | 4010 ft | 100 kts | 2° |
| 2026-05-04 18:42 | 59.69411 | 16.67619 | 4009 ft | 113 kts | 34° |
| 2026-05-04 18:43 | 59.69592 | 16.69142 | 4007 ft | 122 kts | 115° |
| 2026-05-04 18:43 | 59.69027 | 16.70061 | 4012 ft | 97 kts | 194° |
| 2026-05-04 18:43 | 59.68593 | 16.69451 | 4009 ft | 75 kts | 251° |
| 2026-05-04 18:43 | 59.68345 | 16.68539 | 4011 ft | 76 kts | 250° |
| 2026-05-04 18:44 | 59.68095 | 16.67610 | 4008 ft | 77 kts | 250° |
| 2026-05-04 18:44 | 59.67894 | 16.67011 | 4001 ft | 83 kts | 230° |
| 2026-05-04 18:44 | 59.67100 | 16.66586 | 3998 ft | 90 kts | 210° |
| 2026-05-04 18:44 | 59.66486 | 16.66288 | 3999 ft | 90 kts | 210° |
| 2026-05-04 18:45 | 59.65875 | 16.66047 | 3995 ft | 95 kts | 197° |
| 2026-05-04 18:45 | 59.65213 | 16.66553 | 3991 ft | 113 kts | 150° |
| 2026-05-04 18:45 | 59.64801 | 16.67957 | 3990 ft | 121 kts | 107° |
| 2026-05-04 18:45 | 59.64848 | 16.69578 | 3989 ft | 118 kts | 63° |
| 2026-05-04 18:46 | 59.65290 | 16.70869 | 3994 ft | 108 kts | 26° |
| 2026-05-04 18:46 | 59.65937 | 16.71454 | 3994 ft | 100 kts | 1° |
| 2026-05-04 18:46 | 59.66613 | 16.71829 | 3998 ft | 101 kts | 2° |
| 2026-05-04 18:46 | 59.67290 | 16.72205 | 4005 ft | 101 kts | 2° |
| 2026-05-04 18:47 | 59.67964 | 16.72578 | 4006 ft | 102 kts | 2° |
| 2026-05-04 18:47 | 59.68620 | 16.72608 | 3997 ft | 88 kts | 324° |
| 2026-05-04 18:47 | 59.69056 | 16.71877 | 3993 ft | 79 kts | 295° |
| 2026-05-04 18:47 | 59.69041 | 16.70879 | 3994 ft | 79 kts | 251° |
| 2026-05-04 18:48 | 59.68669 | 16.70038 | 3993 ft | 85 kts | 227° |
| 2026-05-04 18:48 | 59.68100 | 16.69570 | 3991 ft | 91 kts | 211° |
| 2026-05-04 18:48 | 59.67494 | 16.69223 | 3990 ft | 91 kts | 211° |
| 2026-05-04 18:48 | 59.66885 | 16.68873 | 3995 ft | 91 kts | 211° |
| 2026-05-04 18:49 | 59.66274 | 16.68525 | 3992 ft | 91 kts | 211° |
| 2026-05-04 18:49 | 59.65674 | 16.68184 | 3994 ft | 90 kts | 211° |
| 2026-05-04 18:49 | 59.65072 | 16.67848 | 3991 ft | 91 kts | 208° |
| 2026-05-04 18:49 | 59.64405 | 16.68207 | 3992 ft | 109 kts | 156° |
| 2026-05-04 18:50 | 59.63965 | 16.69486 | 3989 ft | 121 kts | 109° |
| 2026-05-04 18:50 | 59.64020 | 16.71121 | 3988 ft | 118 kts | 60° |
| 2026-05-04 18:50 | 59.64521 | 16.72243 | 3990 ft | 102 kts | 10° |
| 2026-05-04 18:50 | 59.65180 | 16.72688 | 3996 ft | 101 kts | 5° |
| 2026-05-04 18:51 | 59.65816 | 16.72730 | 3991 ft | 80 kts | 312° |
| 2026-05-04 18:51 | 59.65850 | 16.71829 | 3994 ft | 77 kts | 241° |
| 2026-05-04 18:51 | 59.65468 | 16.71063 | 4000 ft | 78 kts | 238° |
| 2026-05-04 18:51 | 59.65091 | 16.70292 | 4004 ft | 79 kts | 237° |
| 2026-05-04 18:52 | 59.64699 | 16.69504 | 4008 ft | 80 kts | 237° |
| 2026-05-04 18:52 | 59.64309 | 16.68719 | 4006 ft | 80 kts | 237° |
| 2026-05-04 18:52 | 59.63922 | 16.67937 | 4007 ft | 79 kts | 237° |
| 2026-05-04 18:52 | 59.63544 | 16.67168 | 4009 ft | 79 kts | 237° |
| 2026-05-04 18:53 | 59.63158 | 16.66398 | 4007 ft | 79 kts | 237° |
| 2026-05-04 18:53 | 59.62763 | 16.65611 | 4007 ft | 80 kts | 237° |
| 2026-05-04 18:53 | 59.62375 | 16.64837 | 4005 ft | 80 kts | 237° |
| 2026-05-04 18:53 | 59.62020 | 16.64009 | 4012 ft | 74 kts | 260° |
| 2026-05-04 18:54 | 59.62068 | 16.63016 | 4004 ft | 75 kts | 277° |
| 2026-05-04 18:54 | 59.62137 | 16.61989 | 4006 ft | 75 kts | 277° |
| 2026-05-04 18:54 | 59.62208 | 16.60962 | 4009 ft | 75 kts | 277° |
| 2026-05-04 18:54 | 59.62296 | 16.59951 | 4007 ft | 76 kts | 290° |
| 2026-05-04 18:55 | 59.62817 | 16.59484 | 4008 ft | 93 kts | 339° |
| 2026-05-04 18:55 | 59.64113 | 16.59246 | 4012 ft | 105 kts | 5° |
| 2026-05-04 18:55 | 59.64804 | 16.59762 | 4006 ft | 107 kts | 7° |
| 2026-05-04 18:56 | 59.65503 | 16.60259 | 4008 ft | 107 kts | 7° |
| 2026-05-04 18:56 | 59.66193 | 16.60759 | 4006 ft | 106 kts | 8° |
| 2026-05-04 18:56 | 59.66693 | 16.61904 | 4008 ft | 123 kts | 76° |
| 2026-05-04 18:56 | 59.66667 | 16.63604 | 4006 ft | 124 kts | 98° |
| 2026-05-04 18:57 | 59.66580 | 16.65299 | 3894 ft | 125 kts | 98° |
| 2026-05-04 18:57 | 59.66484 | 16.67009 | 3762 ft | 124 kts | 98° |
| 2026-05-04 18:57 | 59.66391 | 16.68716 | 3637 ft | 125 kts | 97° |
| 2026-05-04 18:57 | 59.66603 | 16.70328 | 3490 ft | 120 kts | 46° |
| 2026-05-04 18:58 | 59.67138 | 16.71553 | 3366 ft | 117 kts | 36° |
| 2026-05-04 18:58 | 59.67705 | 16.72707 | 3241 ft | 117 kts | 37° |
| 2026-05-04 18:58 | 59.68278 | 16.73861 | 3112 ft | 116 kts | 36° |
| 2026-05-04 18:58 | 59.68843 | 16.74994 | 2984 ft | 115 kts | 36° |
| 2026-05-04 18:59 | 59.69481 | 16.75803 | 2851 ft | 107 kts | 10° |
| 2026-05-04 18:59 | 59.70175 | 16.76299 | 2725 ft | 104 kts | 360° |
| 2026-05-04 18:59 | 59.70871 | 16.76369 | 2594 ft | 97 kts | 338° |
| 2026-05-04 18:59 | 59.71447 | 16.75893 | 2465 ft | 86 kts | 309° |
| 2026-05-04 19:00 | 59.71725 | 16.74942 | 2360 ft | 78 kts | 280° |
| 2026-05-04 19:00 | 59.71716 | 16.73874 | 2230 ft | 78 kts | 261° |
| 2026-05-04 19:00 | 59.71430 | 16.72951 | 2128 ft | 78 kts | 238° |
| 2026-05-04 19:00 | 59.71130 | 16.72142 | 2111 ft | 68 kts | 242° |
| 2026-05-04 19:01 | 59.70850 | 16.71453 | 2110 ft | 62 kts | 239° |
| 2026-05-04 19:01 | 59.70566 | 16.70859 | 2112 ft | 56 kts | 238° |
| 2026-05-04 19:01 | 59.70302 | 16.70347 | 2107 ft | 49 kts | 238° |
| 2026-05-04 19:01 | 59.70050 | 16.69888 | 2119 ft | 53 kts | 237° |
| 2026-05-04 19:02 | 59.69764 | 16.69308 | 2140 ft | 64 kts | 238° |
| 2026-05-04 19:02 | 59.69448 | 16.68625 | 2138 ft | 70 kts | 238° |
| 2026-05-04 19:02 | 59.69038 | 16.68025 | 2138 ft | 74 kts | 226° |
| 2026-05-04 19:02 | 59.68525 | 16.67572 | 1959 ft | 90 kts | 210° |
| 2026-05-04 19:03 | 59.67910 | 16.67199 | 1764 ft | 96 kts | 210° |
| 2026-05-04 19:03 | 59.67249 | 16.66844 | 1558 ft | 99 kts | 207° |
| 2026-05-04 19:03 | 59.66605 | 16.66541 | 1413 ft | 92 kts | 206° |
| 2026-05-04 19:03 | 59.65995 | 16.66264 | 1283 ft | 87 kts | 206° |
| 2026-05-04 19:04 | 59.65416 | 16.66005 | 1160 ft | 84 kts | 205° |
| 2026-05-04 19:04 | 59.64853 | 16.65768 | 1043 ft | 83 kts | 200° |
| 2026-05-04 19:04 | 59.64264 | 16.65537 | 922 ft | 89 kts | 200° |
| 2026-05-04 19:04 | 59.63639 | 16.65272 | 793 ft | 94 kts | 197° |
| 2026-05-04 19:05 | 59.62987 | 16.65013 | 656 ft | 97 kts | 197° |
| 2026-05-04 19:05 | 59.62321 | 16.64740 | 519 ft | 98 kts | 195° |
| 2026-05-04 19:05 | 59.61670 | 16.64470 | 383 ft | 92 kts | 194° |
| 2026-05-04 19:05 | 59.61102 | 16.64240 | 266 ft | 75 kts | 194° |
| 2026-05-04 19:06 | 59.60637 | 16.64055 | 142 ft | 67 kts | 195° |
| 2026-05-04 19:06 | 59.60145 | 16.63864 | 72 ft | 71 kts | 197° |
| 2026-05-04 19:06 | 59.59730 | 16.63697 | 25 ft | 49 kts | 195° |
| 2026-05-04 19:06 | 59.59483 | 16.63587 | 20 ft | 29 kts | 190° |
| 2026-05-04 19:07 | 59.59320 | 16.63510 | 20 ft | 20 kts | 193° |